createdAt,value
2023-05-10T00:00:05.855Z,13.23
2023-05-10T00:02:40.143Z,13.23
2023-05-10T00:05:07.956Z,13.11
2023-05-10T00:07:34.630Z,13.26
2023-05-10T00:10:01.350Z,13.20
2023-05-10T00:12:28.040Z,13.07
2023-05-10T00:14:54.733Z,13.10
2023-05-10T00:17:21.625Z,13.18
2023-05-10T00:19:48.317Z,13.17
2023-05-10T00:22:15.050Z,13.04
2023-05-10T00:24:41.805Z,13.14
2023-05-10T00:27:08.550Z,13.18
2023-05-10T00:29:35.264Z,13.06
2023-05-10T00:32:02.015Z,12.96
2023-05-10T00:34:28.876Z,13.05
2023-05-10T00:36:55.708Z,12.91
2023-05-10T00:39:22.368Z,13.07
2023-05-10T00:41:49.869Z,13.01
2023-05-10T00:44:17.943Z,12.94
2023-05-10T00:46:45.025Z,12.93
2023-05-10T00:49:12.290Z,12.98
2023-05-10T00:51:39.086Z,12.95
2023-05-10T00:54:06.524Z,13.00
2023-05-10T00:56:33.348Z,12.92
2023-05-10T00:59:01.017Z,12.96
2023-05-10T01:01:29.062Z,12.85
2023-05-10T01:03:56.973Z,12.78
2023-05-10T01:06:23.844Z,12.75
2023-05-10T01:08:52.103Z,12.91
2023-05-10T01:11:18.884Z,12.94
2023-05-10T01:13:57.868Z,12.84
2023-05-10T01:16:26.526Z,12.91
2023-05-10T01:18:53.586Z,12.91
2023-05-10T01:21:34.132Z,12.90
2023-05-10T01:24:11.675Z,12.84
2023-05-10T01:26:53.386Z,12.81
2023-05-10T01:29:36.838Z,12.77
2023-05-10T01:32:25.852Z,12.81
2023-05-10T01:35:07.456Z,12.84
2023-05-10T01:38:05.001Z,12.82
2023-05-10T01:40:38.602Z,12.74
2023-05-10T01:43:11.981Z,12.70
2023-05-10T01:45:45.526Z,12.84
2023-05-10T01:48:13.976Z,12.74
2023-05-10T01:50:44.406Z,12.71
2023-05-10T01:53:13.464Z,12.62
2023-05-10T01:55:49.758Z,12.67
2023-05-10T01:58:22.171Z,12.78
2023-05-10T02:00:51.807Z,12.67
2023-05-10T02:03:23.106Z,12.76
2023-05-10T02:05:51.767Z,12.65
2023-05-10T02:08:23.074Z,12.60
2023-05-10T02:10:54.095Z,12.63
2023-05-10T02:13:22.337Z,12.65
2023-05-10T02:15:50.841Z,12.68
2023-05-10T02:18:19.123Z,12.64
2023-05-10T02:20:48.194Z,12.64
2023-05-10T02:23:18.385Z,12.56
2023-05-10T02:25:47.031Z,12.67
2023-05-10T02:28:15.684Z,12.60
2023-05-10T02:30:42.867Z,12.65
2023-05-10T02:33:09.833Z,12.59
2023-05-10T02:35:38.171Z,12.58
2023-05-10T02:38:06.076Z,12.51
2023-05-10T02:40:34.410Z,12.59
2023-05-10T02:43:03.626Z,12.65
2023-05-10T02:45:33.260Z,12.59
2023-05-10T02:48:00.815Z,12.62
2023-05-10T02:50:29.839Z,12.66
2023-05-10T02:53:03.178Z,12.61
2023-05-10T02:55:36.535Z,12.65
2023-05-10T02:58:04.531Z,12.67
2023-05-10T03:00:31.859Z,12.67
2023-05-10T03:02:58.937Z,12.51
2023-05-10T03:05:27.033Z,12.60
2023-05-10T03:07:54.743Z,12.58
2023-05-10T03:10:27.943Z,12.60
2023-05-10T03:13:12.308Z,12.55
2023-05-10T03:16:09.086Z,12.57
2023-05-10T03:18:46.000Z,12.54
2023-05-10T03:21:14.800Z,12.59
2023-05-10T03:23:47.278Z,12.61
2023-05-10T03:26:24.039Z,12.63
2023-05-10T03:28:52.074Z,12.59
2023-05-10T03:31:19.629Z,12.57
2023-05-10T03:33:50.676Z,12.57
2023-05-10T03:36:22.233Z,12.76
2023-05-10T03:38:48.999Z,12.62
2023-05-10T03:41:16.152Z,12.61
2023-05-10T03:43:42.923Z,12.62
2023-05-10T03:46:09.675Z,12.61
2023-05-10T03:48:36.620Z,12.68
2023-05-10T03:51:03.337Z,12.57
2023-05-10T03:53:30.479Z,12.55
2023-05-10T03:55:57.360Z,12.53
2023-05-10T03:58:24.602Z,12.59
2023-05-10T04:00:52.595Z,12.55
2023-05-10T04:03:19.521Z,12.58
2023-05-10T04:05:46.350Z,12.63
2023-05-10T04:08:13.051Z,12.53
2023-05-10T04:10:39.726Z,12.57
2023-05-10T04:13:06.559Z,12.59
2023-05-10T04:15:33.263Z,12.58
2023-05-10T04:18:00.019Z,12.62
2023-05-10T04:20:26.883Z,12.70
2023-05-10T04:22:53.562Z,12.67
2023-05-10T04:25:20.626Z,12.79
2023-05-10T04:27:47.499Z,12.80
2023-05-10T04:30:14.320Z,12.79
2023-05-10T04:32:41.320Z,12.80
2023-05-10T04:35:08.809Z,12.75
2023-05-10T04:37:35.587Z,12.80
2023-05-10T04:40:02.540Z,12.84
2023-05-10T04:42:29.234Z,12.87
2023-05-10T04:44:55.994Z,12.84
2023-05-10T04:47:22.719Z,12.63
2023-05-10T04:49:49.514Z,12.69
2023-05-10T04:52:18.483Z,12.69
2023-05-10T04:54:45.220Z,12.70
2023-05-10T04:57:12.044Z,12.67
2023-05-10T04:59:38.888Z,12.70
2023-05-10T05:02:06.303Z,12.68
2023-05-10T05:04:33.263Z,12.74
2023-05-10T05:07:00.051Z,12.65
2023-05-10T05:09:26.715Z,12.74
2023-05-10T05:11:53.496Z,12.79
2023-05-10T05:14:22.053Z,12.77
2023-05-10T05:16:48.806Z,12.75
2023-05-10T05:19:15.694Z,12.76
2023-05-10T05:21:42.428Z,12.79
2023-05-10T05:24:09.447Z,12.74
2023-05-10T05:26:36.142Z,12.90
2023-05-10T05:29:03.197Z,12.91
2023-05-10T05:31:30.278Z,12.87
2023-05-10T05:33:57.150Z,12.90
2023-05-10T05:36:23.885Z,12.94
2023-05-10T05:38:50.731Z,12.97
2023-05-10T05:41:17.554Z,13.06
2023-05-10T05:43:44.308Z,13.10
2023-05-10T05:46:10.998Z,13.09
2023-05-10T05:48:37.799Z,13.14
2023-05-10T05:51:06.599Z,13.14
2023-05-10T05:53:34.058Z,13.20
2023-05-10T05:56:00.814Z,13.23
2023-05-10T05:58:28.081Z,13.38
2023-05-10T06:00:55.274Z,13.35
2023-05-10T06:03:22.501Z,13.43
2023-05-10T06:05:49.561Z,13.50
2023-05-10T06:08:16.326Z,13.64
2023-05-10T06:10:43.145Z,13.68
2023-05-10T06:13:09.870Z,13.64
2023-05-10T06:15:36.848Z,13.83
2023-05-10T06:18:03.875Z,13.83
2023-05-10T06:20:32.713Z,14.09
2023-05-10T06:22:59.805Z,13.99
2023-05-10T06:25:26.662Z,13.89
2023-05-10T06:27:58.346Z,14.08
2023-05-10T06:30:29.847Z,14.50
2023-05-10T06:32:57.452Z,14.55
2023-05-10T06:35:24.610Z,14.20
2023-05-10T06:37:52.316Z,14.16
2023-05-10T06:40:19.517Z,14.24
2023-05-10T06:42:47.427Z,14.18
2023-05-10T06:45:15.873Z,14.12
2023-05-10T06:47:43.261Z,14.15
2023-05-10T06:50:10.822Z,14.04
2023-05-10T06:52:37.621Z,14.18
2023-05-10T06:55:05.770Z,14.35
2023-05-10T06:57:33.032Z,14.29
2023-05-10T07:00:00.306Z,14.32
2023-05-10T07:02:27.430Z,14.31
2023-05-10T07:04:54.380Z,14.10
2023-05-10T07:07:21.130Z,14.07
2023-05-10T07:09:47.817Z,14.02
2023-05-10T07:12:15.836Z,13.91
2023-05-10T07:14:43.212Z,13.79
2023-05-10T07:17:10.360Z,13.90
2023-05-10T07:19:37.343Z,13.92
2023-05-10T07:22:04.175Z,13.99
2023-05-10T07:24:32.330Z,14.17
2023-05-10T07:26:59.253Z,14.08
2023-05-10T07:29:26.471Z,14.19
2023-05-10T07:31:53.165Z,14.17
2023-05-10T07:34:20.136Z,14.15
2023-05-10T07:36:47.101Z,14.11
2023-05-10T07:39:18.685Z,14.33
2023-05-10T07:41:51.444Z,14.13
2023-05-10T07:44:20.294Z,14.14
2023-05-10T07:46:47.801Z,14.39
2023-05-10T07:49:14.584Z,14.42
2023-05-10T07:51:41.471Z,14.50
2023-05-10T07:54:08.886Z,14.47
2023-05-10T07:56:36.137Z,14.64
2023-05-10T07:59:09.384Z,14.78
2023-05-10T08:01:37.065Z,14.68
2023-05-10T08:04:04.032Z,14.71
2023-05-10T08:06:31.438Z,14.65
2023-05-10T08:08:58.453Z,14.68
2023-05-10T08:11:26.088Z,14.51
2023-05-10T08:13:55.938Z,14.38
2023-05-10T08:16:22.979Z,14.33
2023-05-10T08:18:52.005Z,14.38
2023-05-10T08:21:18.860Z,14.24
2023-05-10T08:23:45.611Z,14.33
2023-05-10T08:26:12.847Z,14.70
2023-05-10T08:28:39.831Z,14.40
2023-05-10T08:31:06.774Z,14.38
2023-05-10T08:33:34.027Z,14.76
2023-05-10T08:36:00.757Z,14.96
2023-05-10T08:38:27.701Z,15.46
2023-05-10T08:40:59.942Z,15.49
2023-05-10T08:43:31.294Z,15.25
2023-05-10T08:46:01.824Z,15.28
2023-05-10T08:48:30.176Z,15.43
2023-05-10T08:50:59.924Z,15.72
2023-05-10T08:53:28.503Z,15.63
2023-05-10T08:55:55.592Z,15.57
2023-05-10T08:58:22.764Z,15.74
2023-05-10T09:00:54.114Z,15.73
2023-05-10T09:03:21.002Z,15.27
2023-05-10T09:05:48.057Z,15.64
2023-05-10T09:08:17.488Z,15.66
2023-05-10T09:10:45.753Z,15.49
2023-05-10T09:13:13.212Z,15.49
2023-05-10T09:15:40.182Z,15.82
2023-05-10T09:18:07.176Z,16.01
2023-05-10T09:20:33.917Z,16.13
2023-05-10T09:23:00.633Z,15.74
2023-05-10T09:25:27.391Z,15.80
2023-05-10T09:27:54.227Z,16.03
2023-05-10T09:30:31.877Z,16.12
2023-05-10T09:33:00.048Z,16.15
2023-05-10T09:35:30.139Z,16.42
2023-05-10T09:37:59.336Z,16.47
2023-05-10T09:40:28.337Z,16.63
2023-05-10T09:42:58.031Z,16.63
2023-05-10T09:45:29.356Z,16.20
2023-05-10T09:47:56.842Z,16.15
2023-05-10T09:50:24.522Z,16.32
2023-05-10T09:52:53.023Z,15.92
2023-05-10T09:55:24.602Z,16.04
2023-05-10T09:58:00.545Z,16.06
2023-05-10T10:00:28.460Z,15.40
2023-05-10T10:02:57.310Z,15.12
2023-05-10T10:05:36.780Z,15.18
2023-05-10T10:08:05.860Z,14.90
2023-05-10T10:10:33.983Z,14.98
2023-05-10T10:13:01.509Z,15.10
2023-05-10T10:15:28.393Z,15.18
2023-05-10T10:17:55.284Z,15.27
2023-05-10T10:20:23.763Z,15.01
2023-05-10T10:22:50.826Z,15.24
2023-05-10T10:25:19.427Z,15.31
2023-05-10T10:27:50.455Z,15.65
2023-05-10T10:30:36.909Z,15.37
2023-05-10T10:33:41.443Z,15.40
2023-05-10T10:36:08.463Z,15.30
2023-05-10T10:39:02.534Z,15.32
2023-05-10T10:41:50.782Z,15.11
2023-05-10T10:44:23.800Z,15.23
2023-05-10T10:47:25.682Z,15.22
2023-05-10T10:50:01.741Z,15.38
2023-05-10T10:53:11.458Z,15.38
2023-05-10T10:55:47.255Z,15.99
2023-05-10T10:58:30.262Z,16.03
2023-05-10T11:01:17.440Z,16.11
2023-05-10T11:04:06.137Z,16.29
2023-05-10T11:06:35.337Z,15.95
2023-05-10T11:09:13.660Z,16.38
2023-05-10T11:11:53.196Z,16.65
2023-05-10T11:14:23.741Z,16.40
2023-05-10T11:16:50.668Z,16.45
2023-05-10T11:19:18.861Z,16.80
2023-05-10T11:22:14.285Z,16.41
2023-05-10T11:24:41.024Z,16.79
2023-05-10T11:27:08.210Z,16.86
2023-05-10T11:29:34.954Z,17.10
2023-05-10T11:32:01.697Z,17.28
2023-05-10T11:34:31.572Z,17.28
2023-05-10T11:36:59.058Z,17.95
2023-05-10T11:39:30.621Z,18.02
2023-05-10T11:41:58.196Z,17.80
2023-05-10T11:44:30.605Z,17.76
2023-05-10T11:47:00.612Z,18.56
2023-05-10T11:49:27.370Z,18.07
2023-05-10T11:51:54.092Z,18.14
2023-05-10T11:54:20.786Z,18.03
2023-05-10T11:56:47.463Z,18.85
2023-05-10T11:59:16.029Z,18.94
2023-05-10T12:01:42.817Z,18.67
2023-05-10T12:04:09.927Z,18.25
2023-05-10T12:06:41.751Z,19.03
2023-05-10T12:09:09.314Z,19.01
2023-05-10T12:11:42.537Z,19.37
2023-05-10T12:14:11.099Z,19.38
2023-05-10T12:16:37.905Z,19.30
2023-05-10T12:19:04.694Z,18.85
2023-05-10T12:21:34.599Z,19.09
2023-05-10T12:24:04.136Z,19.76
2023-05-10T12:26:31.536Z,19.96
2023-05-10T12:29:18.367Z,19.57
2023-05-10T12:31:59.303Z,19.08
2023-05-10T12:34:32.268Z,19.16
2023-05-10T12:36:59.705Z,19.38
2023-05-10T12:39:26.530Z,18.80
2023-05-10T12:41:53.907Z,18.27
2023-05-10T12:44:20.637Z,18.47
2023-05-10T12:46:47.296Z,18.53
2023-05-10T12:49:13.984Z,18.54
2023-05-10T12:51:40.773Z,18.53
2023-05-10T12:54:07.529Z,17.91
2023-05-10T12:56:34.379Z,17.71
2023-05-10T12:59:01.146Z,17.63
2023-05-10T13:01:28.037Z,17.18
2023-05-10T13:03:54.711Z,17.65
2023-05-10T13:06:21.512Z,17.46
2023-05-10T13:08:48.201Z,17.21
2023-05-10T13:11:17.729Z,17.11
2023-05-10T13:13:44.756Z,17.05
2023-05-10T13:16:11.469Z,17.12
2023-05-10T13:18:38.191Z,17.07
2023-05-10T13:21:06.498Z,16.85
2023-05-10T13:23:33.205Z,16.64
2023-05-10T13:25:59.867Z,16.88
2023-05-10T13:28:27.523Z,17.06
2023-05-10T13:30:54.295Z,17.23
2023-05-10T13:33:21.143Z,17.70
2023-05-10T13:35:47.845Z,17.74
2023-05-10T13:38:14.971Z,17.54
2023-05-10T13:40:41.718Z,17.92
2023-05-10T13:43:08.426Z,18.06
2023-05-10T13:45:35.092Z,18.22
2023-05-10T13:48:01.869Z,18.15
2023-05-10T13:50:28.581Z,18.25
2023-05-10T13:52:55.254Z,18.03
2023-05-10T13:55:22.008Z,18.36
2023-05-10T13:57:48.773Z,18.21
2023-05-10T14:00:16.308Z,18.10
2023-05-10T14:02:43.331Z,18.18
2023-05-10T14:05:10.138Z,18.15
2023-05-10T14:07:36.861Z,17.99
2023-05-10T14:10:04.088Z,17.98
2023-05-10T14:12:31.217Z,17.90
2023-05-10T14:14:59.246Z,17.67
2023-05-10T14:17:25.928Z,17.67
2023-05-10T14:19:54.125Z,17.50
2023-05-10T14:22:20.898Z,17.51
2023-05-10T14:24:48.119Z,17.35
2023-05-10T14:27:15.260Z,17.56
2023-05-10T14:29:41.967Z,17.38
2023-05-10T14:32:09.014Z,17.67
2023-05-10T14:34:35.763Z,17.42
2023-05-10T14:37:02.499Z,17.47
2023-05-10T14:39:31.305Z,17.57
2023-05-10T14:41:58.097Z,17.36
2023-05-10T14:44:24.969Z,17.44
2023-05-10T14:46:51.906Z,17.53
2023-05-10T14:49:18.615Z,17.44
2023-05-10T14:51:46.143Z,17.39
2023-05-10T14:54:12.919Z,17.51
2023-05-10T14:56:39.627Z,17.29
2023-05-10T14:59:06.370Z,17.16
2023-05-10T15:01:34.252Z,17.26
2023-05-10T15:04:01.807Z,17.26
2023-05-10T15:06:33.046Z,17.12
2023-05-10T15:08:59.858Z,16.93
2023-05-10T15:11:27.036Z,17.35
2023-05-10T15:13:54.205Z,17.22
2023-05-10T15:16:21.061Z,17.06
2023-05-10T15:18:47.854Z,16.55
2023-05-10T15:21:14.690Z,16.53
2023-05-10T15:23:41.425Z,16.77
2023-05-10T15:26:08.927Z,17.36
2023-05-10T15:28:35.580Z,17.27
2023-05-10T15:31:02.259Z,17.21
2023-05-10T15:33:28.964Z,17.47
2023-05-10T15:35:56.013Z,17.43
2023-05-10T15:38:23.720Z,17.51
2023-05-10T15:40:50.388Z,17.50
2023-05-10T15:43:17.325Z,17.44
2023-05-10T15:45:43.975Z,17.69
2023-05-10T15:48:10.971Z,17.55
2023-05-10T15:50:37.669Z,17.71
2023-05-10T15:53:04.400Z,17.53
2023-05-10T15:55:31.189Z,17.36
2023-05-10T15:57:57.876Z,17.70
2023-05-10T16:00:25.476Z,17.56
2023-05-10T16:02:54.181Z,17.41
2023-05-10T16:05:21.000Z,17.13
2023-05-10T16:07:47.880Z,17.31
2023-05-10T16:10:14.580Z,17.58
2023-05-10T16:12:41.534Z,17.44
2023-05-10T16:15:09.132Z,17.28
2023-05-10T16:17:35.952Z,17.34
2023-05-10T16:20:02.870Z,17.40
2023-05-10T16:22:30.095Z,17.24
2023-05-10T16:24:57.551Z,17.41
2023-05-10T16:27:24.473Z,17.41
2023-05-10T16:29:51.123Z,17.34
2023-05-10T16:32:17.916Z,17.05
2023-05-10T16:34:44.618Z,17.15
2023-05-10T16:37:11.507Z,16.88
2023-05-10T16:39:38.316Z,16.79
2023-05-10T16:42:05.031Z,16.77
2023-05-10T16:44:31.785Z,16.61
2023-05-10T16:46:58.551Z,16.62
2023-05-10T16:49:26.277Z,16.61
2023-05-10T16:51:53.231Z,16.63
2023-05-10T16:54:21.481Z,16.47
2023-05-10T16:56:48.222Z,16.26
2023-05-10T16:59:14.895Z,16.45
2023-05-10T17:01:41.763Z,16.29
2023-05-10T17:04:08.667Z,16.48
2023-05-10T17:06:36.980Z,16.38
2023-05-10T17:09:04.197Z,16.27
2023-05-10T17:11:31.263Z,16.26
2023-05-10T17:13:59.589Z,16.35
2023-05-10T17:16:26.374Z,16.13
2023-05-10T17:18:53.388Z,16.01
2023-05-10T17:21:20.170Z,16.18
2023-05-10T17:23:46.979Z,16.14
2023-05-10T17:26:13.827Z,16.10
2023-05-10T17:28:40.926Z,16.10
2023-05-10T17:31:07.800Z,16.15
2023-05-10T17:33:34.500Z,16.12
2023-05-10T17:36:01.262Z,16.20
2023-05-10T17:38:28.004Z,16.27
2023-05-10T17:40:55.031Z,16.18
2023-05-10T17:43:21.928Z,16.18
2023-05-10T17:45:49.973Z,16.17
2023-05-10T17:48:17.527Z,16.13
2023-05-10T17:50:44.671Z,16.10
2023-05-10T17:53:11.388Z,15.98
2023-05-10T17:55:42.194Z,16.06
2023-05-10T17:58:10.935Z,15.98
2023-05-10T18:00:38.331Z,15.93
2023-05-10T18:03:05.834Z,16.05
2023-05-10T18:05:37.076Z,15.96
2023-05-10T18:08:04.527Z,16.10
2023-05-10T18:10:31.790Z,15.92
2023-05-10T18:13:02.606Z,15.79
2023-05-10T18:15:29.334Z,15.67
2023-05-10T18:17:56.937Z,15.79
2023-05-10T18:20:23.879Z,15.83
2023-05-10T18:22:50.787Z,15.66
2023-05-10T18:25:17.834Z,15.54
2023-05-10T18:27:44.662Z,15.56
2023-05-10T18:30:12.702Z,15.39
2023-05-10T18:32:39.978Z,15.14
2023-05-10T18:35:08.187Z,15.24
2023-05-10T18:37:35.503Z,15.08
2023-05-10T18:40:02.701Z,15.23
2023-05-10T18:42:29.417Z,15.17
2023-05-10T18:44:56.170Z,15.04
2023-05-10T18:47:23.000Z,15.05
2023-05-10T18:49:49.796Z,14.97
2023-05-10T18:52:16.497Z,14.85
2023-05-10T18:54:43.188Z,14.89
2023-05-10T18:57:09.900Z,14.99
2023-05-10T18:59:36.750Z,14.92
2023-05-10T19:02:03.538Z,14.90
2023-05-10T19:04:30.445Z,14.83
2023-05-10T19:06:57.277Z,14.55
2023-05-10T19:09:24.359Z,14.25
2023-05-10T19:11:51.732Z,14.28
2023-05-10T19:14:18.455Z,14.00
2023-05-10T19:16:45.140Z,13.79
2023-05-10T19:19:12.800Z,13.67
2023-05-10T19:21:40.256Z,13.66
2023-05-10T19:24:07.259Z,13.76
2023-05-10T19:26:36.303Z,13.58
2023-05-10T19:29:03.276Z,13.66
2023-05-10T19:31:30.181Z,13.54
2023-05-10T19:33:59.331Z,13.42
2023-05-10T19:36:27.415Z,13.38
2023-05-10T19:38:54.359Z,13.41
2023-05-10T19:41:22.138Z,13.46
2023-05-10T19:43:48.849Z,13.39
2023-05-10T19:46:17.071Z,13.34
2023-05-10T19:48:44.599Z,13.24
2023-05-10T19:51:12.384Z,13.34
2023-05-10T19:53:41.486Z,13.37
2023-05-10T19:56:08.176Z,13.37
2023-05-10T19:58:34.894Z,13.31
2023-05-10T20:01:02.093Z,13.43
2023-05-10T20:03:29.298Z,13.56
2023-05-10T20:05:56.070Z,13.56
2023-05-10T20:08:22.762Z,13.61
2023-05-10T20:10:49.411Z,13.56
2023-05-10T20:13:16.151Z,13.56
2023-05-10T20:15:42.771Z,13.56
2023-05-10T20:18:09.584Z,13.52
2023-05-10T20:20:36.351Z,13.52
2023-05-10T20:23:03.157Z,13.37
2023-05-10T20:25:29.981Z,13.44
2023-05-10T20:27:56.741Z,13.48
2023-05-10T20:30:23.414Z,13.44
2023-05-10T20:32:50.087Z,13.52
2023-05-10T20:35:16.930Z,13.49
2023-05-10T20:37:43.778Z,13.43
2023-05-10T20:40:11.177Z,13.32
2023-05-10T20:42:38.021Z,13.27
2023-05-10T20:45:05.260Z,13.22
2023-05-10T20:47:32.724Z,13.09
2023-05-10T20:49:59.496Z,13.03
2023-05-10T20:52:26.470Z,13.05
2023-05-10T20:54:53.503Z,12.97
2023-05-10T20:57:20.298Z,12.82
2023-05-10T20:59:46.955Z,12.78
2023-05-10T21:02:13.593Z,12.77
2023-05-10T21:04:40.524Z,12.65
2023-05-10T21:07:07.340Z,12.52
2023-05-10T21:09:35.327Z,12.50
2023-05-10T21:12:03.501Z,12.46
2023-05-10T21:14:33.563Z,12.43
2023-05-10T21:17:00.205Z,12.27
2023-05-10T21:19:27.043Z,12.15
2023-05-10T21:21:56.319Z,11.99
2023-05-10T21:24:23.485Z,11.75
2023-05-10T21:26:50.204Z,11.84
2023-05-10T21:29:16.930Z,11.90
2023-05-10T21:31:43.685Z,11.99
2023-05-10T21:34:10.560Z,11.84
2023-05-10T21:36:37.269Z,11.68
2023-05-10T21:39:04.432Z,11.58
2023-05-10T21:41:31.345Z,11.53
2023-05-10T21:43:58.033Z,11.57
2023-05-10T21:46:24.793Z,11.57
2023-05-10T21:48:51.542Z,11.46
2023-05-10T21:51:18.383Z,11.46
2023-05-10T21:53:45.061Z,11.33
2023-05-10T21:56:11.808Z,11.32
2023-05-10T21:58:38.574Z,11.19
2023-05-10T22:01:05.591Z,11.14
2023-05-10T22:03:32.383Z,11.20
2023-05-10T22:05:59.148Z,11.29
2023-05-10T22:08:25.923Z,11.37
2023-05-10T22:10:52.764Z,11.45
2023-05-10T22:13:19.421Z,11.45
2023-05-10T22:15:50.351Z,11.39
2023-05-10T22:18:17.228Z,11.32
2023-05-10T22:20:47.077Z,11.28
2023-05-10T22:23:14.012Z,11.26
2023-05-10T22:25:40.734Z,11.32
2023-05-10T22:28:08.126Z,11.41
2023-05-10T22:30:35.068Z,11.43
2023-05-10T22:33:02.019Z,11.46
2023-05-10T22:35:28.732Z,11.56
2023-05-10T22:37:55.405Z,11.67
2023-05-10T22:40:22.238Z,11.61
2023-05-10T22:42:48.925Z,11.53
2023-05-10T22:45:15.662Z,11.36
2023-05-10T22:47:42.378Z,11.33
2023-05-10T22:50:09.640Z,11.34
2023-05-10T22:52:39.009Z,11.18
2023-05-10T22:55:07.162Z,11.18
2023-05-10T22:57:34.360Z,11.22
2023-05-10T23:00:01.178Z,11.31
2023-05-10T23:02:27.911Z,11.40
2023-05-10T23:04:54.797Z,11.53
2023-05-10T23:07:21.526Z,11.43
2023-05-10T23:09:48.959Z,11.64
2023-05-10T23:12:15.738Z,11.60
2023-05-10T23:14:42.445Z,11.62
2023-05-10T23:17:09.198Z,11.80
2023-05-10T23:19:35.901Z,11.79
2023-05-10T23:22:02.562Z,11.79
2023-05-10T23:24:29.321Z,11.86
2023-05-10T23:26:56.121Z,11.92
2023-05-10T23:29:24.111Z,11.95
2023-05-10T23:31:51.491Z,11.99
2023-05-10T23:34:18.389Z,11.72
2023-05-10T23:36:45.160Z,11.62
2023-05-10T23:39:12.209Z,11.75
2023-05-10T23:41:38.949Z,11.74
2023-05-10T23:44:05.663Z,11.85
2023-05-10T23:46:32.340Z,11.90
2023-05-10T23:48:59.032Z,11.80
2023-05-10T23:51:25.774Z,11.73
2023-05-10T23:53:52.402Z,11.85
2023-05-10T23:56:19.112Z,11.93
2023-05-10T23:58:46.540Z,11.81
